Station info - map view · info · telemetry · weather · raw · status · beacons · messages · bulletins · browse · moving · my account
Callsign, ship name or locator: Clear       
It is possible to search using wildcards (*?) after a prefix. Example: OH*
APRS station KE0VCH-9 - show graphs
Map loading...
Mic-E message: En route
Location: 38°44.20' N 104°46.45' W - locator DM78OR76CT - show map - static map
0.8 miles East bearing 94° from Fort Carson, El Paso County, Colorado, United States [?]
2.6 miles South bearing 173° from Stratmoor, El Paso County, Colorado, United States
7.2 miles South bearing 159° from Colorado Springs, El Paso County, Colorado, United States
70.1 miles South bearing 171° from Denver, Denver County, Colorado, United States
Last position: 2019-05-19 23:20:21 EDT (4h16m ago)
2019-05-19 21:20:21 MDT local time at Fort Carson, United States [?]
Altitude: 5863 ft
Course: 319°
Device: Yaesu: FTM-400DR (rig)
Last path: KE0VCH-9>SX4TRP via ALMGRE,W9YF,WIDE2,qAR,KD0SFY (good)
Positions stored: 451
Stations near current position of KE0VCH-9 - show more
callsign distance last heard - EDT      callsign distance last heard - EDT
KOMJL-91.4 miles 127°2019-04-23 11:27:53 KJ0CFW-92.0 miles 75°2019-05-16 23:12:48
N0DAX-92.4 miles 110°2019-05-19 17:31:42 K0ECO-92.5 miles 73°2019-05-19 22:00:57
KE0BZG-72.8 miles 326°2019-05-19 17:17:36 KE0VBB-92.8 miles 73°2019-04-28 13:26:08
W4KAD(EL678)2.9 miles 68°2019-04-22 16:40:26 k6bub3.0 miles 60°2019-05-19 19:09:10
KJ0CFW3.6 miles 98°2019-05-07 11:14:51 EW77173.9 miles 311°2019-05-20 03:32:14
WB0BLV-104.0 miles 99°2019-05-20 03:27:39 N7EAA4.4 miles 13°2019-05-20 03:26:40
KE7TBB-54.4 miles 13°2019-05-05 21:03:04 K7CB4.5 miles 98°2019-05-16 06:00:51
KE0BBI4.6 miles 22°2019-05-14 14:58:49 W9KOZ-54.9 miles 275°2019-05-20 03:34:10
N0PKT B4.9 miles 275°2019-05-20 03:35:21 N0PKT-B4.9 miles 275°2019-05-20 03:35:31
N0PKT-R4.9 miles 275°2019-05-20 03:36:00 KR5J5.3 miles 99°2019-05-20 03:03:22
Stations which heard KE0VCH-9 directly on radio –
callsign pkts first heard - EDT last heard longest (tx => rx) longest at - EDT
WERNER 1 2019-05-01 13:16:57 2019-05-01 13:16:57 DM69XP > DN60PK 67.2 miles 328° 2019-05-01 13:16:57
UBUTTE 3 2019-05-01 17:29:34 2019-05-02 11:31:30 DM58EW > DM58QN 58.3 miles 115° 2019-05-01 17:41:34
BAXTER 6 2019-05-01 16:59:30 2019-05-02 17:49:21 DM58FL > DM59MO 84.6 miles 23° 2019-05-02 14:08:46
SUNLGT 10 2019-05-01 14:12:35 2019-05-01 15:09:47 DM59XL > DM69HK 34.4 miles 96° 2019-05-01 15:09:47
GRAND 3 2019-05-01 15:13:00 2019-05-01 15:25:08 DM59XK > DM59VC 25.4 miles 199° 2019-05-01 15:13:00
BALD 29 2019-05-01 17:23:34 2019-05-02 17:55:21 DM59IB > DM58IM 36.8 miles 186° 2019-05-01 17:23:34
VAILMT 3 2019-05-01 12:49:45 2019-05-01 13:54:36 DM69XL > DM69TO 17.5 miles 299° 2019-05-01 12:49:45
ABAJO 67 2019-05-01 17:35:34 2019-05-02 15:45:36 DM58DW > DM57GU 77.8 miles 171° 2019-05-01 17:44:34
K7YI-4 52 2019-05-01 17:47:34 2019-05-02 21:43:34 DM58GK > DM49JF 108.6 miles 301° 2019-05-02 11:04:04
KB0YNA-5 6 2019-05-01 15:40:07 2019-05-01 16:07:15 DM59QC > DM59SB 7.2 miles 113° 2019-05-01 15:52:05
ALMGRE 13 2019-05-01 11:09:57 2019-05-19 23:19:45 DM78PV > DM78MS 18.4 miles 246° 2019-05-18 16:32:55
ANVIL 2 2019-05-01 14:48:48 2019-05-01 15:06:48 DM69FN > DM69AM 21.2 miles 266° 2019-05-01 14:48:48
CLIMAX 1 2019-05-01 13:30:12 2019-05-01 13:30:12 DM69VM > DM69VJ 9.0 miles 185° 2019-05-01 13:30:12
SWANMT 1 2019-05-01 13:15:19 2019-05-01 13:15:19 DM69XP > DM69XO 3.4 miles 152° 2019-05-01 13:15:19
K0NR-1 1 2019-05-01 12:13:46 2019-05-01 12:13:46 DM79AD > DM78AV 17.3 miles 187° 2019-05-01 12:13:46
DTSERO 1 2019-05-01 14:06:36 2019-05-01 14:06:36 DM69OQ > DM69JP 22.2 miles 266° 2019-05-01 14:06:36
KD0SFY 115 2019-05-01 10:42:59 2019-05-18 17:33:07 DM78LX > DM78OV 15.7 miles 118° 2019-05-01 11:10:57
SKING 6 2019-05-01 15:49:11 2019-05-01 16:47:22 DM59QC > DM68EI 74.5 miles 135° 2019-05-01 16:47:22
BVILLE 3 2019-05-01 13:03:41 2019-05-01 13:18:08 DM69WN > DM79CQ 18.1 miles 71° 2019-05-01 13:03:41
SANDFL 11 2019-05-01 18:27:42 2019-05-03 21:19:58 DM58EO > DM58FN 5.7 miles 124° 2019-05-02 17:21:17
PANDO 1 2019-05-01 12:37:46 2019-05-01 12:37:46 DM69XJ > DM69TJ 16.0 miles 276° 2019-05-01 12:37:46
MNARCH 1 2019-05-01 12:07:38 2019-05-01 12:07:38 DM79BB > DM68TM 46.6 miles 215° 2019-05-01 12:07:38
BADGR 7 2019-05-01 11:27:02 2019-05-01 12:19:45 DM79AF > DM79FB 28.0 miles 113° 2019-05-01 12:19:45
W0ARP-3 1 2019-05-11 21:41:15 2019-05-11 21:41:15 DM78NU > DM79QL 44.1 miles 17° 2019-05-11 21:41:15
W9YF 3 2019-05-01 11:03:58 2019-05-11 21:51:41 DM78MW > DM78OV 10.6 miles 106° 2019-05-01 11:03:58
WD4IXD-12 8 2019-05-01 11:58:37 2019-05-01 12:31:45 DM69XH > DM79CC 22.5 miles 137° 2019-05-01 12:31:45
KB9UZO-1 5 2019-05-11 14:16:15 2019-05-18 16:52:36 DM78OR > DM78QW 18.1 miles 38° 2019-05-11 15:49:51

Only position packets which were originated by the station are shown here. The range statistics show some extra long hops, because some digipeaters do not correctly add themselves to the digipeater path. Please check the raw packets.
About this site
This page shows real-time information collected from the Automatic Position Reporting System Internet network (APRS-IS). APRS is used by amateur (ham) radio operators to transmit real-time position information, weather data, telemetry and messages over the radio. A vehicle equipped with a GPS receiver, a VHF transmitter or HF transceiver and a small computer device called a tracker transmits it's location, speed and course in a small data packet, which is then received by a nearby iGate receiving site which forwards the packet on the Internet. Systems connected to the Internet can send information on the APRS-IS without a radio transmitter, or collect and display information transmitted anywhere in the world.
FAQ · Blog · Discussion group · Linking to aprs.fi · AIS sites · Service status · Database statistics · Advertising on aprs.fi · Technical details · API · Change log · Planned changes · Credits and thanks · Terms Of Service · iPhone/iPad APRS